Time;durP1;ratioP1;P1;durP2;ratioP2;P2;SDS_P1;SDS_P2;PMS_P1;PMS_P2;Temp;Humidity;BMP_temperature;BMP_pressure;BME280_temperature;BME280_humidity;BME280_pressure;Samples;Min_cycle;Max_cycle;Signal;HPM_P1;HPM_P2
2024/01/22 00:00:57;;;;;;;3.97;2.92;;;;;;;7.17;100.00;100750.50;4980442;28;20642;-64
2024/01/22 00:03:23;;;;;;;8.00;3.15;;;;;;;7.21;100.00;100747.25;4975609;28;20077;-65
2024/01/22 00:05:48;;;;;;;3.13;2.83;;;;;;;7.29;100.00;100724.38;4981808;28;20511;-65
2024/01/22 00:08:13;;;;;;;6.82;2.92;;;;;;;7.32;100.00;100701.31;4979460;28;20030;-65
2024/01/22 00:10:38;;;;;;;4.28;3.10;;;;;;;7.37;100.00;100714.41;4985390;28;20230;-65
2024/01/22 00:13:04;;;;;;;3.42;2.80;;;;;;;7.39;100.00;100689.56;4986830;28;20045;-65
2024/01/22 00:15:29;;;;;;;5.13;2.95;;;;;;;7.41;100.00;100695.69;4976524;28;20120;-65
2024/01/22 00:17:54;;;;;;;5.63;2.92;;;;;;;7.41;100.00;100678.50;4986102;28;20601;-65
2024/01/22 00:20:20;;;;;;;4.70;3.30;;;;;;;7.38;100.00;100688.69;4982963;28;20038;-65
2024/01/22 00:22:45;;;;;;;3.97;2.75;;;;;;;7.39;100.00;100680.16;4980409;28;20035;-65
2024/01/22 00:25:11;;;;;;;4.95;2.90;;;;;;;7.40;100.00;100706.78;4974626;28;20147;-65
2024/01/22 00:27:36;;;;;;;6.68;3.30;;;;;;;7.45;100.00;100695.88;4978653;28;20049;-65
2024/01/22 00:30:01;;;;;;;4.72;3.08;;;;;;;7.45;100.00;100680.38;4978393;28;20550;-65
2024/01/22 00:32:26;;;;;;;4.55;2.95;;;;;;;7.51;100.00;100673.72;4976323;28;20035;-65
2024/01/22 00:34:52;;;;;;;5.43;3.47;;;;;;;7.56;100.00;100673.09;4987821;28;20030;-65
2024/01/22 00:37:17;;;;;;;5.80;2.50;;;;;;;7.60;100.00;100642.28;4972223;28;20102;-65
2024/01/22 00:39:42;;;;;;;6.32;2.92;;;;;;;7.67;100.00;100621.97;4973252;28;20034;-65
2024/01/22 00:42:07;;;;;;;3.53;2.45;;;;;;;7.67;100.00;100640.03;4977629;28;20034;-65
2024/01/22 00:44:33;;;;;;;4.30;2.72;;;;;;;7.62;100.00;100641.53;4973238;28;20039;-65
2024/01/22 00:46:58;;;;;;;3.88;2.45;;;;;;;7.68;100.00;100649.50;4974184;28;20049;-65
2024/01/22 00:49:23;;;;;;;6.05;2.47;;;;;;;7.68;100.00;100621.13;4987987;28;20030;-65
2024/01/22 00:51:48;;;;;;;6.68;2.78;;;;;;;7.73;100.00;100625.63;4983027;28;20776;-65
2024/01/22 00:54:14;;;;;;;3.15;2.15;;;;;;;7.75;100.00;100629.13;4977202;28;20031;-65
2024/01/22 00:56:40;;;;;;;2.53;2.15;;;;;;;7.76;100.00;100602.50;4983381;28;20480;-65
2024/01/22 00:59:05;;;;;;;5.03;2.50;;;;;;;7.77;100.00;100593.97;4970243;28;20027;-65
2024/01/22 01:01:31;;;;;;;3.83;2.40;;;;;;;7.77;100.00;100604.28;4974382;28;20155;-65
2024/01/22 01:03:57;;;;;;;5.50;2.63;;;;;;;7.69;100.00;100615.19;4979676;28;20111;-65
2024/01/22 01:06:22;;;;;;;3.55;2.35;;;;;;;7.75;100.00;100626.56;4983855;28;20031;-65
2024/01/22 01:08:47;;;;;;;3.60;2.30;;;;;;;7.80;100.00;100605.28;4975773;28;20034;-65
2024/01/22 01:11:12;;;;;;;3.33;2.60;;;;;;;7.84;100.00;100603.72;4978283;28;20464;-65
2024/01/22 01:13:38;;;;;;;3.17;2.53;;;;;;;7.86;100.00;100609.78;4979909;28;20034;-65
2024/01/22 01:16:03;;;;;;;4.25;2.47;;;;;;;7.88;100.00;100622.78;4978838;28;20039;-65
2024/01/22 01:18:28;;;;;;;3.28;2.38;;;;;;;7.95;100.00;100613.56;4976152;28;20038;-65
2024/01/22 01:20:54;;;;;;;3.92;2.20;;;;;;;7.96;100.00;100599.84;4989584;28;20030;-65
2024/01/22 01:23:19;;;;;;;4.88;2.28;;;;;;;7.97;100.00;100596.44;4985553;28;20529;-65
2024/01/22 01:25:44;;;;;;;2.70;2.05;;;;;;;7.95;100.00;100598.09;4977466;28;20046;-65
2024/01/22 01:28:09;;;;;;;3.45;1.92;;;;;;;8.01;100.00;100598.31;4981043;28;20244;-65
2024/01/22 01:30:35;;;;;;;2.83;2.00;;;;;;;8.00;100.00;100597.44;4973995;28;20034;-65
2024/01/22 01:33:00;;;;;;;3.45;1.88;;;;;;;8.02;100.00;100610.41;4978653;28;20459;-65
2024/01/22 01:35:25;;;;;;;2.83;1.75;;;;;;;8.07;100.00;100577.91;4985190;28;20034;-65
2024/01/22 01:37:52;;;;;;;2.80;1.70;;;;;;;8.04;100.00;100565.75;4977976;28;20023;-65
2024/01/22 01:40:17;;;;;;;3.50;2.35;;;;;;;8.07;100.00;100552.09;4975572;28;20368;-65
2024/01/22 01:42:43;;;;;;;2.53;1.58;;;;;;;8.11;100.00;100548.78;4977471;28;20060;-65
2024/01/22 01:45:13;;;;;;;1.85;1.73;;;;;;;8.19;100.00;100550.78;4978660;28;20043;-64
2024/01/22 01:47:38;;;;;;;3.33;1.70;;;;;;;8.19;100.00;100550.78;4978184;28;20074;-65
2024/01/22 01:50:05;;;;;;;4.63;1.85;;;;;;;8.22;100.00;100556.09;4981353;28;20090;-65
2024/01/22 01:52:30;;;;;;;4.38;2.13;;;;;;;8.33;100.00;100528.09;4990402;28;20037;-65
2024/01/22 01:54:56;;;;;;;5.05;2.42;;;;;;;8.31;100.00;100543.50;4976269;28;20030;-65
2024/01/22 01:57:22;;;;;;;3.13;1.90;;;;;;;8.27;100.00;100528.75;4992190;28;20113;-65
2024/01/22 01:59:48;;;;;;;2.50;1.88;;;;;;;8.35;100.00;100531.56;4977334;28;20026;-65
2024/01/22 02:02:13;;;;;;;2.53;1.90;;;;;;;8.33;100.00;100536.69;4983345;28;20662;-65
2024/01/22 02:04:38;;;;;;;2.83;1.52;;;;;;;8.34;100.00;100524.66;4983418;28;20057;-65
2024/01/22 02:07:04;;;;;;;1.98;1.20;;;;;;;8.36;100.00;100512.69;4986772;28;20023;-65
2024/01/22 02:09:53;;;;;;;2.72;1.35;;;;;;;8.34;100.00;100527.25;4990700;28;20092;-65
2024/01/22 02:12:19;;;;;;;4.22;2.10;;;;;;;8.33;100.00;100513.44;4974419;28;20404;-65
2024/01/22 02:14:46;;;;;;;3.65;1.63;;;;;;;8.34;100.00;100525.56;4987395;28;20037;-65
2024/01/22 02:17:12;;;;;;;1.60;1.42;;;;;;;8.35;100.00;100527.31;4987179;28;20116;-65
2024/01/22 02:19:37;;;;;;;1.73;1.60;;;;;;;8.40;100.00;100499.09;4990683;28;20097;-64
2024/01/22 02:22:03;;;;;;;1.52;1.40;;;;;;;8.43;100.00;100498.28;4990992;28;20109;-65
2024/01/22 02:24:28;;;;;;;2.90;1.50;;;;;;;8.48;100.00;100499.34;4979181;28;20459;-65
2024/01/22 02:26:53;;;;;;;2.88;1.75;;;;;;;8.55;100.00;100488.41;4988973;28;20030;-65
2024/01/22 02:29:19;;;;;;;3.60;1.70;;;;;;;8.52;100.00;100480.53;4986788;28;20026;-65
2024/01/22 02:31:45;;;;;;;3.90;2.17;;;;;;;8.52;100.00;100468.53;4989532;28;20022;-65
2024/01/22 02:34:11;;;;;;;2.42;1.20;;;;;;;8.57;100.00;100468.69;4990661;28;20125;-65
2024/01/22 02:36:37;;;;;;;1.60;1.30;;;;;;;8.58;100.00;100467.84;4990265;28;20505;-65
2024/01/22 02:39:02;;;;;;;2.53;1.30;;;;;;;8.59;100.00;100445.50;4989003;28;20029;-65
2024/01/22 02:41:27;;;;;;;1.83;1.40;;;;;;;8.56;100.00;100417.00;4980544;28;20060;-65
2024/01/22 02:43:53;;;;;;;2.53;1.35;;;;;;;8.57;100.00;100432.53;4977392;28;20268;-65
2024/01/22 02:46:18;;;;;;;2.67;1.60;;;;;;;8.61;100.00;100411.16;4988978;28;20305;-65
2024/01/22 02:48:43;;;;;;;2.03;1.38;;;;;;;8.64;100.00;100416.41;4988129;28;20096;-65
2024/01/22 02:51:09;;;;;;;1.63;1.00;;;;;;;8.59;100.00;100412.81;4998310;28;20021;-65
2024/01/22 02:53:35;;;;;;;1.70;1.25;;;;;;;8.56;100.00;100389.47;4985493;28;20089;-65
2024/01/22 02:56:00;;;;;;;2.55;1.27;;;;;;;8.61;100.00;100395.66;4982087;28;20039;-65
2024/01/22 02:58:26;;;;;;;3.25;1.40;;;;;;;8.60;100.00;100383.56;4977984;28;20511;-65
2024/01/22 03:00:51;;;;;;;3.15;1.30;;;;;;;8.66;100.00;100393.22;4981053;28;20030;-65
2024/01/22 03:03:16;;;;;;;1.92;1.40;;;;;;;8.69;100.00;100382.13;4987695;28;20030;-65
2024/01/22 03:05:41;;;;;;;3.63;1.35;;;;;;;8.67;100.00;100365.69;4988924;28;20046;-65
2024/01/22 03:08:07;;;;;;;2.38;1.50;;;;;;;8.67;100.00;100368.28;4977787;28;20035;-65
2024/01/22 03:10:32;;;;;;;1.50;1.30;;;;;;;8.60;100.00;100364.63;4982773;28;20590;-65
2024/01/22 03:12:57;;;;;;;1.98;1.48;;;;;;;8.55;100.00;100367.00;4981753;28;20323;-65
2024/01/22 03:15:23;;;;;;;2.65;1.30;;;;;;;8.52;100.00;100360.06;4984899;28;20057;-65
2024/01/22 03:17:48;;;;;;;1.70;1.52;;;;;;;8.46;100.00;100354.66;4975242;28;20240;-66
2024/01/22 03:20:13;;;;;;;2.50;1.55;;;;;;;8.44;100.00;100337.38;4979689;28;20034;-66
2024/01/22 03:22:39;;;;;;;3.90;1.58;;;;;;;8.44;100.00;100352.88;4988343;28;20054;-65
2024/01/22 03:25:05;;;;;;;1.92;1.40;;;;;;;8.42;100.00;100342.47;4983180;28;20088;-65
2024/01/22 03:27:31;;;;;;;3.55;1.55;;;;;;;8.37;100.00;100316.50;4985444;28;20034;-65
2024/01/22 03:29:56;;;;;;;1.70;1.25;;;;;;;8.41;100.00;100341.63;4981477;28;20463;-65
2024/01/22 03:32:21;;;;;;;1.85;1.45;;;;;;;8.40;100.00;100334.69;4971627;28;20031;-66
2024/01/22 03:34:47;;;;;;;2.38;1.40;;;;;;;8.39;100.00;100340.69;4983161;28;20038;-66
2024/01/22 03:37:12;;;;;;;3.72;1.58;;;;;;;8.44;100.00;100324.47;4985903;28;20096;-65
2024/01/22 03:39:37;;;;;;;1.38;1.20;;;;;;;8.47;100.00;100325.44;4984938;28;20042;-65
2024/01/22 03:42:03;;;;;;;2.13;1.25;;;;;;;8.46;100.00;100333.13;4981595;28;20127;-66
2024/01/22 03:44:28;;;;;;;1.80;1.23;;;;;;;8.50;100.00;100322.97;4975077;28;20045;-66
2024/01/22 03:46:53;;;;;;;1.45;1.02;;;;;;;8.56;100.00;100324.91;4982311;28;20529;-66
2024/01/22 03:49:18;;;;;;;2.20;1.20;;;;;;;8.56;100.00;100317.16;4988112;28;20026;-65
2024/01/22 03:51:44;;;;;;;2.50;1.30;;;;;;;8.57;100.00;100320.59;4988003;28;20030;-66
2024/01/22 03:54:09;;;;;;;1.60;1.05;;;;;;;8.56;100.00;100319.75;4988017;28;20495;-66
2024/01/22 03:56:34;;;;;;;1.90;1.30;;;;;;;8.58;100.00;100284.47;4996412;28;20034;-65
2024/01/22 03:59:00;;;;;;;2.38;1.35;;;;;;;8.62;100.00;100304.41;4975717;28;20415;-66
2024/01/22 04:01:25;;;;;;;1.88;1.27;;;;;;;8.64;100.00;100302.78;4981493;28;20030;-65
2024/01/22 04:03:50;;;;;;;3.53;1.42;;;;;;;8.65;100.00;100309.69;4988427;28;20439;-65
2024/01/22 04:06:16;;;;;;;2.47;1.42;;;;;;;8.64;100.00;100307.94;4975033;28;20042;-65
2024/01/22 04:08:42;;;;;;;2.40;1.20;;;;;;;8.64;100.00;100292.44;4982774;28;20042;-66
2024/01/22 04:11:07;;;;;;;2.30;1.17;;;;;;;8.65;100.00;100296.75;4976992;28;20076;-66
2024/01/22 04:13:32;;;;;;;1.73;1.23;;;;;;;8.63;100.00;100306.16;4976492;28;20034;-65
2024/01/22 04:15:57;;;;;;;4.00;0.90;;;;;;;8.61;100.00;100296.63;4993136;28;20030;-65
2024/01/22 04:18:23;;;;;;;1.55;1.38;;;;;;;8.64;100.00;100297.59;4987560;28;20084;-65
2024/01/22 04:20:48;;;;;;;1.90;1.00;;;;;;;8.61;100.00;100289.75;4983217;28;20298;-65
2024/01/22 04:23:13;;;;;;;1.02;0.90;;;;;;;8.61;100.00;100291.47;4985395;28;20026;-65
2024/01/22 04:25:38;;;;;;;1.27;1.17;;;;;;;8.62;100.00;100283.75;4987359;28;20057;-65
2024/01/22 04:28:04;;;;;;;2.50;1.40;;;;;;;8.60;100.00;100290.56;4983726;28;20080;-65
2024/01/22 04:30:29;;;;;;;4.32;1.10;;;;;;;8.62;100.00;100288.94;4975864;28;20042;-65
2024/01/22 04:32:54;;;;;;;2.92;0.85;;;;;;;8.70;100.00;100284.00;4986038;28;20091;-65
2024/01/22 04:35:20;;;;;;;2.13;0.80;;;;;;;8.74;100.00;100287.56;4974941;28;20488;-65
2024/01/22 04:37:46;;;;;;;1.58;1.10;;;;;;;8.75;100.00;100291.88;4987259;28;20029;-65
2024/01/22 04:40:13;;;;;;;1.52;1.05;;;;;;;8.75;100.00;100273.81;4986112;28;20478;-65
2024/01/22 04:42:40;;;;;;;2.38;0.75;;;;;;;8.81;100.00;100304.13;4970552;28;20040;-66
2024/01/22 04:45:06;;;;;;;3.13;1.10;;;;;;;8.84;100.00;100287.00;4981089;28;20289;-65
2024/01/22 04:47:32;;;;;;;2.08;0.90;;;;;;;8.86;100.00;100277.59;4986657;28;20034;-65
2024/01/22 04:49:57;;;;;;;1.17;0.80;;;;;;;8.84;100.00;100279.25;4987615;28;20084;-66
2024/01/22 04:52:22;;;;;;;1.48;0.90;;;;;;;8.88;100.00;100280.22;4981322;28;20026;-66
2024/01/22 04:54:48;;;;;;;1.00;0.80;;;;;;;8.91;100.00;100290.66;4979991;28;20038;-65
2024/01/22 04:57:13;;;;;;;1.17;0.80;;;;;;;8.97;100.00;100280.50;4977266;28;20379;-66
2024/01/22 04:59:39;;;;;;;1.25;0.70;;;;;;;9.03;100.00;100279.78;4975151;28;20045;-66
2024/01/22 05:02:04;;;;;;;2.00;0.98;;;;;;;9.04;100.00;100284.13;4974740;28;20054;-66
2024/01/22 05:04:29;;;;;;;2.20;0.80;;;;;;;9.12;100.00;100264.56;4980885;28;20069;-65
2024/01/22 05:06:54;;;;;;;1.15;0.73;;;;;;;9.17;100.00;100256.94;4979834;28;20546;-66
2024/01/22 05:09:19;;;;;;;2.55;0.75;;;;;;;9.20;100.00;100256.13;4987400;28;20069;-66
2024/01/22 05:11:45;;;;;;;2.05;0.75;;;;;;;9.17;100.00;100269.88;4978326;28;20036;-66
2024/01/22 05:14:10;;;;;;;3.17;1.00;;;;;;;9.25;100.00;100277.81;4981999;28;20033;-65
2024/01/22 05:16:37;;;;;;;0.85;0.80;;;;;;;9.26;100.00;100266.66;4973535;28;20390;-66
2024/01/22 05:19:02;;;;;;;2.25;0.80;;;;;;;9.34;100.00;100265.16;4985057;28;20048;-66
2024/01/22 05:21:28;;;;;;;2.63;0.98;;;;;;;9.37;100.00;100260.06;4993887;28;20034;-66
2024/01/22 05:23:53;;;;;;;2.90;0.63;;;;;;;9.41;100.00;100265.34;4976994;28;20066;-66
2024/01/22 05:26:18;;;;;;;1.48;0.90;;;;;;;9.42;100.00;100248.97;4980971;28;20073;-66
2024/01/22 05:28:44;;;;;;;1.83;1.02;;;;;;;9.46;100.00;100253.41;4969126;28;20444;-66
2024/01/22 05:31:09;;;;;;;2.22;0.60;;;;;;;9.57;100.00;100244.22;4978426;28;20030;-66
2024/01/22 05:33:34;;;;;;;1.77;0.68;;;;;;;9.59;100.00;100252.91;4982270;28;20022;-66
2024/01/22 05:35:59;;;;;;;2.28;0.60;;;;;;;9.60;100.00;100262.44;4982755;28;20025;-66
2024/01/22 05:38:25;;;;;;;2.15;0.70;;;;;;;9.69;100.00;100274.72;4980677;28;20144;-66
2024/01/22 05:40:50;;;;;;;2.35;0.70;;;;;;;9.65;100.00;100264.25;4986747;28;20490;-66
2024/01/22 05:43:15;;;;;;;2.17;0.70;;;;;;;9.67;100.00;100271.22;4979979;28;20040;-66
2024/01/22 05:45:41;;;;;;;1.90;0.60;;;;;;;9.64;100.00;100259.91;4985940;28;20038;-66
2024/01/22 05:48:07;;;;;;;1.88;0.80;;;;;;;9.64;100.00;100267.69;4974046;28;20035;-66
2024/01/22 05:50:32;;;;;;;1.98;1.08;;;;;;;9.60;100.00;100262.44;4975793;28;20542;-66
2024/01/22 05:52:58;;;;;;;0.90;0.60;;;;;;;9.61;100.00;100274.50;4986696;28;20070;-66
2024/01/22 05:55:23;;;;;;;1.40;0.68;;;;;;;9.56;100.00;100281.28;4989190;28;20033;-66
2024/01/22 05:57:49;;;;;;;1.75;0.85;;;;;;;9.51;100.00;100272.53;4980750;28;20530;-66
2024/01/22 06:00:14;;;;;;;2.60;0.85;;;;;;;9.52;100.00;100287.19;4971899;28;20027;-66
2024/01/22 06:02:41;;;;;;;1.45;0.70;;;;;;;9.49;100.00;100277.66;4968472;28;20042;-66
2024/01/22 06:05:07;;;;;;;0.85;0.63;;;;;;;9.46;100.00;100266.34;4970257;28;20073;-66
2024/01/22 06:07:32;;;;;;;4.63;1.08;;;;;;;9.42;100.00;100278.31;4977549;28;20231;-66
2024/01/22 06:09:58;;;;;;;4.40;1.08;;;;;;;9.38;100.00;100292.00;4978179;28;20030;-66
2024/01/22 06:12:24;;;;;;;3.08;0.90;;;;;;;9.39;100.00;100303.22;4975621;28;20435;-66
2024/01/22 06:14:50;;;;;;;2.58;1.00;;;;;;;9.37;100.00;100293.69;4981117;28;20430;-66
2024/01/22 06:17:15;;;;;;;1.15;0.70;;;;;;;9.37;100.00;100296.28;4981892;28;20057;-66
2024/01/22 06:19:40;;;;;;;2.75;0.90;;;;;;;9.34;100.00;100298.78;4982024;28;20026;-66
2024/01/22 06:22:05;;;;;;;2.17;0.98;;;;;;;9.34;100.00;100280.69;4985861;28;20191;-66
2024/01/22 06:24:34;;;;;;;2.15;1.00;;;;;;;9.37;100.00;100269.56;4989741;28;20029;-66
2024/01/22 06:26:59;;;;;;;4.35;1.02;;;;;;;9.36;100.00;100257.44;4983725;28;20042;-66
2024/01/22 06:29:25;;;;;;;1.75;1.00;;;;;;;9.32;100.00;100266.81;4975454;28;20615;-66
2024/01/22 06:31:50;;;;;;;2.20;1.02;;;;;;;9.28;100.00;100275.34;4971191;28;20582;-66
2024/01/22 06:34:15;;;;;;;1.92;0.90;;;;;;;9.25;100.00;100280.41;4984509;28;20034;-66
2024/01/22 06:36:40;;;;;;;1.95;0.90;;;;;;;9.28;100.00;100282.22;4986952;28;20050;-66
2024/01/22 06:39:08;;;;;;;1.83;0.95;;;;;;;9.27;100.00;100285.63;4986573;28;20778;-66
2024/01/22 06:41:34;;;;;;;2.67;1.20;;;;;;;9.22;100.00;100290.69;4978464;28;20027;-66
2024/01/22 06:43:59;;;;;;;2.55;1.13;;;;;;;9.24;100.00;100276.09;4972799;28;20046;-66
2024/01/22 06:46:24;;;;;;;2.13;1.08;;;;;;;9.23;100.00;100274.31;4979662;28;20054;-66
2024/01/22 06:48:49;;;;;;;2.15;1.00;;;;;;;9.23;100.00;100287.25;4982048;28;20030;-66
2024/01/22 06:51:16;;;;;;;3.65;1.30;;;;;;;9.26;100.00;100302.88;4988460;28;20034;-66
2024/01/22 06:53:42;;;;;;;1.77;0.82;;;;;;;9.28;100.00;100305.50;4980709;28;20081;-66
2024/01/22 06:56:07;;;;;;;1.48;0.90;;;;;;;9.27;100.00;100307.19;4981114;28;20022;-66
2024/01/22 06:58:32;;;;;;;1.60;0.80;;;;;;;9.29;100.00;100309.81;4988612;28;20483;-66
2024/01/22 07:00:58;;;;;;;1.30;0.90;;;;;;;9.31;100.00;100324.56;4984786;28;20057;-66
2024/01/22 07:03:23;;;;;;;1.38;0.80;;;;;;;9.29;100.00;100310.69;4974613;28;20040;-66
2024/01/22 07:05:49;;;;;;;1.13;0.90;;;;;;;9.33;100.00;100317.72;4986984;28;20117;-66
2024/01/22 07:08:15;;;;;;;0.82;0.68;;;;;;;9.34;100.00;100310.81;4978984;28;20316;-66
2024/01/22 07:10:40;;;;;;;0.93;0.75;;;;;;;9.37;100.00;100316.09;4982411;28;20097;-66
2024/01/22 07:13:06;;;;;;;2.88;0.80;;;;;;;9.34;100.00;100316.00;4976871;28;20022;-66
2024/01/22 07:15:31;;;;;;;1.20;0.90;;;;;;;9.31;100.00;100321.97;4988781;28;20037;-66
2024/01/22 07:17:57;;;;;;;4.07;1.00;;;;;;;9.31;100.00;100314.22;4980186;28;20034;-66
2024/01/22 07:20:23;;;;;;;2.50;1.30;;;;;;;9.31;100.00;100308.16;4986461;28;20463;-66
2024/01/22 07:22:48;;;;;;;2.80;0.98;;;;;;;9.35;100.00;100315.19;4984412;28;20088;-66
2024/01/22 07:25:14;;;;;;;2.47;1.30;;;;;;;9.36;100.00;100309.16;4980099;28;20023;-66
2024/01/22 07:27:39;;;;;;;1.15;1.05;;;;;;;9.34;100.00;100314.28;4983843;28;20030;-66
2024/01/22 07:30:11;;;;;;;5.00;1.02;;;;;;;9.39;100.00;100305.81;4987399;28;20050;-66
2024/01/22 07:32:38;;;;;;;4.20;1.40;;;;;;;9.42;100.00;100303.28;4971400;28;20022;-66
2024/01/22 07:35:08;;;;;;;2.80;1.48;;;;;;;9.42;100.00;100314.53;4978367;28;20614;-66
2024/01/22 07:37:35;;;;;;;3.13;1.27;;;;;;;9.47;100.00;100312.94;4985452;28;20460;-66
2024/01/22 07:40:00;;;;;;;3.50;0.82;;;;;;;9.47;100.00;100318.13;4987156;28;20030;-66
2024/01/22 07:42:26;;;;;;;3.47;1.45;;;;;;;9.51;100.00;100329.44;4979248;28;20093;-66
2024/01/22 07:44:51;;;;;;;5.60;1.42;;;;;;;9.51;100.00;100320.78;4976602;28;20053;-66
2024/01/22 07:47:17;;;;;;;3.30;1.38;;;;;;;9.52;100.00;100323.41;4979835;28;20891;-66
2024/01/22 07:49:42;;;;;;;2.63;1.30;;;;;;;9.51;100.00;100329.44;4977577;28;20026;-66
2024/01/22 07:52:07;;;;;;;5.25;1.80;;;;;;;9.50;100.00;100332.81;4978165;28;20037;-66
2024/01/22 07:54:32;;;;;;;3.67;1.02;;;;;;;9.49;100.00;100328.50;4971861;28;20472;-66
2024/01/22 07:56:58;;;;;;;5.85;1.27;;;;;;;9.49;100.00;100337.16;4973855;28;20027;-66
2024/01/22 07:59:23;;;;;;;6.18;1.70;;;;;;;9.47;100.00;100336.22;4970122;28;20447;-66
2024/01/22 08:01:48;;;;;;;5.65;1.23;;;;;;;9.51;100.00;100334.59;4975342;28;20128;-66
2024/01/22 08:04:13;;;;;;;6.68;1.60;;;;;;;9.53;100.00;100332.06;4976960;28;20089;-66
2024/01/22 08:06:39;;;;;;;8.48;2.35;;;;;;;9.49;100.00;100316.44;4983217;28;20469;-66
2024/01/22 08:09:04;;;;;;;7.70;1.90;;;;;;;9.52;100.00;100326.00;4983465;28;20027;-66
2024/01/22 08:11:30;;;;;;;6.38;1.70;;;;;;;9.47;100.00;100319.81;4983527;28;20046;-66
2024/01/22 08:13:55;;;;;;;11.05;2.17;;;;;;;9.50;100.00;100319.91;4980348;28;20034;-66
2024/01/22 08:16:20;;;;;;;8.95;2.53;;;;;;;9.48;100.00;100319.84;4980548;28;20042;-66
2024/01/22 08:18:47;;;;;;;12.45;2.63;;;;;;;9.46;100.00;100320.66;4980445;28;20420;-66
2024/01/22 08:21:12;;;;;;;13.15;2.60;;;;;;;9.46;100.00;100331.00;4976869;28;20034;-66
2024/01/22 08:23:37;;;;;;;11.25;3.00;;;;;;;9.47;100.00;100332.75;4973037;28;20038;-66
2024/01/22 08:26:03;;;;;;;13.00;2.70;;;;;;;9.45;100.00;100334.41;4981949;28;20548;-66
2024/01/22 08:28:28;;;;;;;18.77;3.53;;;;;;;9.47;100.00;100348.25;4982883;28;20030;-66
2024/01/22 08:30:55;;;;;;;16.95;3.22;;;;;;;9.45;100.00;100339.59;4980484;28;20484;-66
2024/01/22 08:33:21;;;;;;;10.80;2.65;;;;;;;9.43;100.00;100356.75;4982838;28;20030;-66
2024/01/22 08:35:46;;;;;;;16.42;3.30;;;;;;;9.40;100.00;100349.81;4978059;28;20023;-66
2024/01/22 08:38:11;;;;;;;10.25;2.70;;;;;;;9.39;100.00;100352.34;4980066;28;20037;-66
2024/01/22 08:40:36;;;;;;;12.55;3.05;;;;;;;9.41;100.00;100345.53;4978578;28;20512;-66
2024/01/22 08:43:03;;;;;;;12.43;2.92;;;;;;;9.39;100.00;100370.44;4982638;28;20026;-66
2024/01/22 08:45:29;;;;;;;8.40;2.33;;;;;;;9.40;100.00;100357.56;4983350;28;20065;-66
2024/01/22 08:47:54;;;;;;;11.57;2.80;;;;;;;9.41;100.00;100369.66;4982099;28;20378;-66
2024/01/22 08:50:23;;;;;;;13.13;2.78;;;;;;;9.37;100.00;100366.09;4983085;28;20050;-66
2024/01/22 08:52:50;;;;;;;18.48;2.88;;;;;;;9.33;100.00;100377.19;4977652;28;20038;-66
2024/01/22 08:55:16;;;;;;;11.77;2.50;;;;;;;9.34;100.00;100378.94;4976721;28;20067;-66
2024/01/22 08:57:42;;;;;;;13.20;2.65;;;;;;;9.35;100.00;100380.69;4977394;28;20063;-66
2024/01/22 09:00:11;;;;;;;14.18;3.47;;;;;;;9.31;100.00;100377.97;4975789;28;20455;-67
2024/01/22 09:02:39;;;;;;;11.27;3.22;;;;;;;9.29;100.00;100366.69;4968971;28;20122;-66
2024/01/22 09:05:11;;;;;;;13.93;2.78;;;;;;;9.35;100.00;100365.16;4977922;28;20030;-66
2024/01/22 09:07:36;;;;;;;11.73;2.90;;;;;;;9.31;100.00;100372.81;4975016;28;20081;-66
2024/01/22 09:10:06;;;;;;;14.73;2.70;;;;;;;9.34;100.00;100371.19;4976912;28;20030;-66
2024/01/22 09:12:35;;;;;;;9.00;2.05;;;;;;;9.33;100.00;100372.03;4976363;28;20034;-66
2024/01/22 09:15:02;;;;;;;9.68;2.53;;;;;;;9.28;100.00;100368.44;4972613;28;20037;-66
2024/01/22 09:17:28;;;;;;;16.40;2.80;;;;;;;9.23;100.00;100357.94;4975389;28;20030;-66
2024/01/22 09:19:53;;;;;;;12.18;2.40;;;;;;;9.22;100.00;100365.66;4973813;28;20481;-66
2024/01/22 09:22:21;;;;;;;11.00;2.58;;;;;;;9.16;100.00;100357.69;4973933;28;20491;-66
2024/01/22 09:24:47;;;;;;;10.50;2.35;;;;;;;9.15;100.00;100363.72;4974268;28;20030;-66
2024/01/22 09:27:13;;;;;;;15.20;2.83;;;;;;;9.15;100.00;100350.78;4969213;28;20404;-66
2024/01/22 09:29:41;;;;;;;14.82;2.78;;;;;;;9.15;100.00;100350.78;4975520;28;20467;-66
2024/01/22 09:32:07;;;;;;;16.80;3.30;;;;;;;9.15;100.00;100355.94;4977037;28;20030;-66
2024/01/22 09:34:32;;;;;;;13.45;2.67;;;;;;;9.16;100.00;100337.91;4973901;28;20035;-66
2024/01/22 09:36:58;;;;;;;14.05;2.75;;;;;;;9.17;100.00;100365.53;4967744;28;20440;-66
2024/01/22 09:39:23;;;;;;;12.95;2.70;;;;;;;9.17;100.00;100343.94;4968746;28;20491;-66
2024/01/22 09:41:50;;;;;;;13.07;2.80;;;;;;;9.16;100.00;100355.09;4975849;28;20035;-66
2024/01/22 09:44:15;;;;;;;11.27;2.58;;;;;;;9.17;100.00;100354.28;4973963;28;20023;-66
2024/01/22 09:46:41;;;;;;;15.88;3.15;;;;;;;9.16;100.00;100363.75;4972695;28;20077;-66
2024/01/22 09:49:06;;;;;;;17.40;3.10;;;;;;;9.14;100.00;100370.56;4978170;28;20031;-66
2024/01/22 09:51:34;;;;;;;13.07;2.53;;;;;;;9.17;100.00;100377.56;4976673;28;20022;-66
2024/01/22 09:54:07;;;;;;;9.15;2.75;;;;;;;9.19;100.00;100383.66;4974235;28;20034;-66
2024/01/22 09:56:34;;;;;;;11.32;2.80;;;;;;;9.22;100.00;100394.09;4976706;28;20093;-66
2024/01/22 09:59:15;;;;;;;9.77;2.50;;;;;;;9.21;100.00;100388.03;4975937;28;20092;-66
2024/01/22 10:01:41;;;;;;;10.10;2.20;;;;;;;9.24;100.00;100395.03;4975468;28;20057;-66
2024/01/22 10:04:09;;;;;;;11.48;2.50;;;;;;;9.23;100.00;100398.41;4973106;28;20026;-66
2024/01/22 10:06:36;;;;;;;5.80;1.63;;;;;;;9.21;100.00;100392.34;4975149;28;20053;-66
2024/01/22 10:09:01;;;;;;;8.25;2.30;;;;;;;9.22;100.00;100397.56;4974327;28;20031;-66
2024/01/22 10:11:27;;;;;;;7.10;1.98;;;;;;;9.21;100.00;100398.38;4973331;28;20395;-66
2024/01/22 10:13:53;;;;;;;6.22;1.90;;;;;;;9.22;100.00;100410.50;4974468;28;20518;-66
2024/01/22 10:16:18;;;;;;;7.78;2.17;;;;;;;9.24;100.00;100428.63;4977126;28;20095;-66
2024/01/22 10:18:59;;;;;;;7.15;1.77;;;;;;;9.25;100.00;100435.53;4973003;28;20026;-66
2024/01/22 10:21:24;;;;;;;11.15;2.05;;;;;;;9.23;100.00;100453.59;4975034;28;20049;-67
2024/01/22 10:24:15;;;;;;;9.48;2.47;;;;;;;9.18;100.00;100465.50;4980530;28;20027;-66
2024/01/22 10:26:41;;;;;;;9.68;2.25;;;;;;;8.99;100.00;100474.38;4970637;28;20035;-66
2024/01/22 10:29:22;;;;;;;8.57;1.65;;;;;;;8.77;100.00;100482.31;4975419;28;20092;-66
2024/01/22 10:31:56;;;;;;;9.13;2.53;;;;;;;8.58;100.00;100506.59;4981231;28;20452;-66
2024/01/22 10:34:30;;;;;;;13.95;2.08;;;;;;;8.49;100.00;100514.88;4974915;28;20121;-67
2024/01/22 10:37:12;;;;;;;9.52;2.15;;;;;;;8.41;100.00;100514.63;4978343;28;20026;-66
2024/01/22 10:39:39;;;;;;;15.35;3.47;;;;;;;8.30;100.00;100505.59;4980789;28;20026;-66
2024/01/22 10:42:07;;;;;;;16.13;3.75;;;;;;;8.22;100.00;100505.31;4976155;28;20027;-66
2024/01/22 10:44:34;;;;;;;17.52;3.60;;;;;;;8.15;100.00;100514.53;4978292;28;20479;-66
2024/01/22 10:47:03;;;;;;;16.35;4.03;;;;;;;8.13;100.00;100505.00;4974616;28;20051;-66
2024/01/22 10:49:29;;;;;;;15.60;4.15;;;;;;;8.05;100.00;100510.75;4976185;28;20053;-66
2024/01/22 10:51:55;;;;;;;18.30;3.83;;;;;;;8.02;100.00;100514.94;4973663;28;20039;-66
2024/01/22 10:54:20;;;;;;;19.60;4.32;;;;;;;7.99;100.00;100505.34;4977144;28;20026;-66
2024/01/22 10:56:50;;;;;;;19.55;4.85;;;;;;;7.98;100.00;100513.94;4978291;28;20026;-66
2024/01/22 10:59:18;;;;;;;22.35;4.32;;;;;;;7.96;100.00;100509.53;4974874;28;20030;-66
2024/01/22 11:01:44;;;;;;;24.92;5.53;;;;;;;7.93;100.00;100518.91;4976541;28;20038;-66
2024/01/22 11:04:11;;;;;;;26.33;5.05;;;;;;;7.96;100.00;100509.53;4974926;28;20034;-66
2024/01/22 11:06:41;;;;;;;24.60;4.70;;;;;;;7.96;100.00;100506.94;4972126;28;20136;-66
2024/01/22 11:09:10;;;;;;;20.97;5.03;;;;;;;7.99;100.00;100518.25;4972662;28;20489;-66
2024/01/22 11:11:40;;;;;;;21.65;5.00;;;;;;;7.98;100.00;100516.50;4974367;28;20376;-66
2024/01/22 11:14:05;;;;;;;26.17;5.38;;;;;;;8.00;100.00;100524.31;4974269;28;20475;-66
2024/01/22 11:16:31;;;;;;;19.58;5.03;;;;;;;8.02;100.00;100528.69;4979893;28;20022;-66
2024/01/22 11:18:58;;;;;;;20.52;4.40;;;;;;;8.04;100.00;100527.06;4982656;28;20034;-66